createdAt,value
2019-02-09T00:02:21.321Z,6.00
2019-02-09T00:05:09.548Z,6.10
2019-02-09T00:07:51.324Z,6.20
2019-02-09T00:10:39.378Z,6.20
2019-02-09T00:13:08.205Z,6.20
2019-02-09T00:18:56.659Z,6.20
2019-02-09T00:21:38.567Z,6.20
2019-02-09T00:24:26.596Z,6.10
2019-02-09T00:27:08.460Z,6.10
2019-02-09T00:29:56.461Z,6.10
2019-02-09T00:32:37.723Z,6.20
2019-02-09T00:35:25.759Z,6.10
2019-02-09T00:38:07.705Z,6.10
2019-02-09T00:40:55.741Z,6.20
2019-02-09T00:43:37.758Z,6.30
2019-02-09T00:46:25.777Z,6.40
2019-02-09T00:49:07.864Z,6.40
2019-02-09T00:51:36.561Z,6.50
2019-02-09T00:54:05.282Z,6.50
2019-02-09T00:56:33.948Z,6.60
2019-02-09T00:59:02.708Z,6.60
2019-02-09T01:01:31.368Z,6.70
2019-02-09T01:04:00.096Z,6.70
2019-02-09T01:06:28.885Z,6.80
2019-02-09T01:09:16.920Z,6.90
2019-02-09T01:11:59.018Z,6.90
2019-02-09T01:14:47.041Z,6.90
2019-02-09T01:17:15.700Z,6.90
2019-02-09T01:20:24.401Z,6.90
2019-02-09T01:23:12.360Z,6.90
2019-02-09T01:26:00.399Z,6.80
2019-02-09T01:28:42.515Z,6.70
2019-02-09T01:31:30.564Z,6.80
2019-02-09T01:34:11.704Z,6.70
2019-02-09T01:39:54.418Z,6.90
2019-02-09T01:42:42.447Z,7.10
2019-02-09T01:45:25.846Z,7.00
2019-02-09T01:48:13.875Z,7.10
2019-02-09T01:50:55.217Z,7.10
2019-02-09T01:53:43.268Z,7.20
2019-02-09T01:56:24.647Z,7.30
2019-02-09T01:59:06.540Z,7.30
2019-02-09T02:01:54.598Z,7.30
2019-02-09T02:04:35.809Z,7.30
2019-02-09T02:07:23.815Z,7.40
2019-02-09T02:10:07.252Z,7.30
2019-02-09T02:12:56.986Z,7.40
2019-02-09T02:15:38.900Z,7.30
2019-02-09T02:18:27.203Z,7.40
2019-02-09T02:21:08.528Z,7.40
2019-02-09T02:23:56.782Z,7.50
2019-02-09T02:26:38.415Z,7.50
2019-02-09T02:29:26.535Z,7.50
2019-02-09T02:32:08.506Z,7.50
2019-02-09T02:34:56.726Z,7.60
2019-02-09T02:37:38.690Z,7.60
2019-02-09T02:40:26.818Z,7.60
2019-02-09T02:43:08.515Z,7.70
2019-02-09T02:45:56.834Z,7.70
2019-02-09T02:48:38.495Z,7.70
2019-02-09T02:51:26.728Z,7.70
2019-02-09T02:54:10.510Z,7.70
2019-02-09T02:56:58.366Z,7.70
2019-02-09T02:59:40.736Z,7.70
2019-02-09T03:02:28.887Z,7.70
2019-02-09T03:05:12.007Z,7.60
2019-02-09T03:08:00.200Z,7.40
2019-02-09T03:10:42.446Z,7.40
2019-02-09T03:13:30.585Z,7.40
2019-02-09T03:16:18.783Z,7.20
2019-02-09T03:19:00.641Z,7.30
2019-02-09T03:21:48.771Z,7.30
2019-02-09T03:24:32.445Z,7.20
2019-02-09T03:30:17.345Z,6.90
2019-02-09T03:33:17.593Z,7.00
2019-02-09T03:35:48.786Z,7.10
2019-02-09T03:38:37.027Z,7.10
2019-02-09T03:41:19.080Z,7.10
2019-02-09T03:44:07.321Z,7.20
2019-02-09T03:46:48.987Z,7.20
2019-02-09T03:49:37.156Z,7.10
2019-02-09T03:52:18.805Z,7.20
2019-02-09T03:55:07.175Z,7.20
2019-02-09T03:57:49.535Z,7.10
2019-02-09T04:00:37.754Z,7.10
2019-02-09T04:03:19.452Z,7.10
2019-02-09T04:08:48.669Z,6.90
2019-02-09T04:11:36.760Z,7.00
2019-02-09T04:14:18.575Z,7.00
2019-02-09T04:17:21.138Z,7.10
2019-02-09T04:20:21.623Z,7.20
2019-02-09T04:23:03.463Z,7.30
2019-02-09T04:25:51.617Z,7.20
2019-02-09T04:28:33.231Z,7.20
2019-02-09T04:31:21.570Z,7.20
2019-02-09T04:34:03.550Z,7.30
2019-02-09T04:36:45.776Z,7.30
2019-02-09T04:39:33.934Z,7.40
2019-02-09T04:42:15.346Z,7.40
2019-02-09T04:45:03.541Z,7.40
2019-02-09T04:47:45.020Z,7.50
2019-02-09T04:50:33.314Z,7.60
2019-02-09T04:53:21.477Z,7.60
2019-02-09T04:56:09.782Z,7.60
2019-02-09T04:58:52.011Z,7.70
2019-02-09T05:01:40.168Z,7.60
2019-02-09T05:04:22.446Z,7.60
2019-02-09T05:07:10.585Z,7.60
2019-02-09T05:09:52.574Z,7.70
2019-02-09T05:12:40.661Z,7.70
2019-02-09T05:15:23.886Z,7.70
2019-02-09T05:18:11.964Z,7.60
2019-02-09T05:20:53.638Z,7.50
2019-02-09T05:23:41.623Z,7.60
2019-02-09T05:26:23.688Z,7.60
2019-02-09T05:29:11.737Z,7.50
2019-02-09T05:31:59.693Z,7.50
2019-02-09T05:34:41.516Z,7.50
2019-02-09T05:37:29.561Z,7.50
2019-02-09T05:40:30.036Z,7.60
2019-02-09T05:43:18.021Z,7.60
2019-02-09T05:45:59.955Z,7.60
2019-02-09T05:51:16.348Z,7.60
2019-02-09T05:54:04.384Z,7.60
2019-02-09T05:56:33.152Z,7.50
2019-02-09T05:59:21.189Z,7.50
2019-02-09T06:02:02.734Z,7.50
2019-02-09T06:04:50.775Z,7.60
2019-02-09T06:07:32.461Z,7.60
2019-02-09T06:10:20.705Z,7.40
2019-02-09T06:13:02.349Z,7.40
2019-02-09T06:15:50.499Z,7.40
2019-02-09T06:18:32.401Z,7.50
2019-02-09T06:21:20.461Z,7.50
2019-02-09T06:24:01.624Z,7.50
2019-02-09T06:26:30.401Z,7.60
2019-02-09T06:29:18.389Z,7.70
2019-02-09T06:31:47.147Z,7.70
2019-02-09T06:34:35.069Z,7.80
2019-02-09T06:37:23.131Z,7.90
2019-02-09T06:40:06.078Z,8.00
2019-02-09T06:42:54.257Z,8.00
2019-02-09T06:45:36.217Z,8.00
2019-02-09T06:48:44.924Z,8.00
2019-02-09T06:51:26.361Z,8.00
2019-02-09T06:54:14.400Z,8.00
2019-02-09T06:56:56.516Z,8.00
2019-02-09T06:59:44.480Z,8.10
2019-02-09T07:02:13.203Z,8.20
2019-02-09T07:04:41.895Z,8.20
2019-02-09T07:07:10.616Z,8.30
2019-02-09T07:09:58.655Z,8.20
2019-02-09T07:12:40.729Z,8.20
2019-02-09T07:15:48.016Z,8.10
2019-02-09T07:18:29.969Z,8.00
2019-02-09T07:20:58.722Z,7.90
2019-02-09T07:23:46.733Z,7.90
2019-02-09T07:26:34.776Z,7.90
2019-02-09T07:29:16.949Z,7.90
2019-02-09T07:32:04.996Z,8.10
2019-02-09T07:34:46.859Z,8.10
2019-02-09T07:37:34.963Z,8.10
2019-02-09T07:40:42.276Z,8.00
2019-02-09T07:43:30.315Z,8.10
2019-02-09T07:46:12.160Z,8.10
2019-02-09T07:49:00.188Z,8.20
2019-02-09T07:51:41.392Z,8.20
2019-02-09T07:54:29.382Z,8.30
2019-02-09T07:57:17.483Z,8.20
2019-02-09T07:59:59.504Z,8.30
2019-02-09T08:02:47.488Z,8.40
2019-02-09T08:05:30.185Z,8.40
2019-02-09T08:08:18.210Z,8.40
2019-02-09T08:10:59.889Z,8.50
2019-02-09T08:13:47.966Z,8.50
2019-02-09T08:16:30.106Z,8.50
2019-02-09T08:19:12.242Z,8.60
2019-02-09T08:24:47.946Z,8.80
2019-02-09T08:27:35.861Z,8.90
2019-02-09T08:30:19.299Z,8.90
2019-02-09T08:33:07.355Z,8.90
2019-02-09T08:35:55.367Z,9.00
2019-02-09T08:38:37.462Z,9.00
2019-02-09T08:41:25.456Z,9.10
2019-02-09T08:44:07.348Z,9.10
2019-02-09T08:46:55.304Z,9.10
2019-02-09T08:49:37.236Z,9.10
2019-02-09T08:52:25.286Z,9.20
2019-02-09T08:55:07.513Z,9.30
2019-02-09T08:57:55.529Z,9.40
2019-02-09T09:00:37.248Z,9.50
2019-02-09T09:03:25.233Z,9.50
2019-02-09T09:06:06.613Z,9.80
2019-02-09T09:11:35.847Z,10.80
2019-02-09T09:14:23.815Z,10.50
2019-02-09T09:17:05.640Z,10.20
2019-02-09T09:19:53.848Z,10.10
2019-02-09T09:22:35.710Z,10.10
2019-02-09T09:25:23.893Z,10.10
2019-02-09T09:28:05.684Z,10.10
2019-02-09T09:30:53.777Z,10.10
2019-02-09T09:33:35.903Z,10.00
2019-02-09T09:36:23.972Z,10.00
2019-02-09T09:39:06.980Z,10.00
2019-02-09T09:41:54.998Z,9.90
2019-02-09T09:44:36.861Z,9.80
2019-02-09T09:47:24.852Z,9.80
2019-02-09T09:50:08.434Z,9.80
2019-02-09T09:52:56.452Z,9.70
2019-02-09T09:55:38.482Z,9.50
2019-02-09T09:58:19.872Z,9.60
2019-02-09T10:00:48.651Z,9.60
2019-02-09T10:03:17.216Z,9.50
2019-02-09T10:05:45.937Z,9.50
2019-02-09T10:08:33.968Z,9.60
2019-02-09T10:14:15.625Z,9.70
2019-02-09T10:17:04.004Z,9.90
2019-02-09T10:19:45.609Z,10.00
2019-02-09T10:22:33.793Z,9.90
2019-02-09T10:25:15.765Z,9.70
2019-02-09T10:28:04.603Z,9.80
2019-02-09T10:30:52.588Z,9.80
2019-02-09T10:33:40.712Z,9.70
2019-02-09T10:36:22.436Z,9.70
2019-02-09T10:39:10.372Z,9.70
2019-02-09T10:41:58.410Z,9.70
2019-02-09T10:44:40.436Z,9.70
2019-02-09T10:47:28.471Z,9.90
2019-02-09T10:50:37.157Z,10.00
2019-02-09T10:53:18.446Z,10.10
2019-02-09T10:56:06.485Z,10.10
2019-02-09T10:58:54.479Z,10.10
2019-02-09T11:01:42.580Z,10.30
2019-02-09T11:04:24.794Z,10.30
2019-02-09T11:07:07.139Z,10.40
2019-02-09T11:09:55.131Z,10.20
2019-02-09T11:12:43.220Z,10.30
2019-02-09T11:15:26.105Z,10.30
2019-02-09T11:18:08.046Z,10.30
2019-02-09T11:20:56.082Z,10.50
2019-02-09T11:23:37.512Z,10.80
2019-02-09T11:26:25.579Z,12.10
2019-02-09T11:29:07.648Z,13.00
2019-02-09T11:31:55.671Z,12.10
2019-02-09T11:34:37.422Z,11.70
2019-02-09T11:37:19.182Z,11.30
2019-02-09T11:40:27.918Z,11.20
2019-02-09T11:43:10.067Z,11.00
2019-02-09T11:45:58.109Z,11.00
2019-02-09T11:48:39.323Z,10.80
2019-02-09T11:51:27.311Z,10.80
2019-02-09T11:54:08.684Z,10.80
2019-02-09T11:56:56.748Z,10.90
2019-02-09T11:59:38.534Z,11.20
2019-02-09T12:02:26.509Z,11.30
2019-02-09T12:05:07.995Z,11.50
2019-02-09T12:07:56.104Z,10.90
2019-02-09T12:11:03.608Z,11.60
2019-02-09T12:13:55.355Z,11.90
2019-02-09T12:16:35.116Z,11.80
2019-02-09T12:19:03.896Z,12.00
2019-02-09T12:21:51.913Z,12.10
2019-02-09T12:24:20.708Z,12.20
2019-02-09T12:27:08.721Z,12.70
2019-02-09T12:29:56.763Z,12.90
2019-02-09T12:32:38.736Z,12.80
2019-02-09T12:35:26.742Z,13.00
2019-02-09T12:38:09.209Z,13.00
2019-02-09T12:40:57.226Z,12.90
2019-02-09T12:43:38.847Z,12.90
2019-02-09T12:46:26.808Z,13.20
2019-02-09T12:49:08.040Z,12.90
2019-02-09T12:51:56.037Z,12.80
2019-02-09T12:54:38.041Z,13.30
2019-02-09T12:57:26.089Z,13.00
2019-02-09T13:00:15.600Z,12.70
2019-02-09T13:03:30.715Z,12.70
2019-02-09T13:06:05.981Z,12.60
2019-02-09T13:08:54.029Z,12.40
2019-02-09T13:11:36.053Z,12.30
2019-02-09T13:14:24.011Z,12.10
2019-02-09T13:17:05.948Z,11.80
2019-02-09T13:19:53.943Z,11.60
2019-02-09T13:22:35.874Z,11.40
2019-02-09T13:25:23.901Z,11.40
2019-02-09T13:28:05.830Z,11.40
2019-02-09T13:30:53.917Z,11.50
2019-02-09T13:33:39.010Z,11.40
2019-02-09T13:36:25.168Z,11.40
2019-02-09T13:39:07.167Z,11.50
2019-02-09T13:41:35.881Z,11.70
2019-02-09T13:44:04.741Z,11.60
2019-02-09T13:46:33.477Z,11.50
2019-02-09T13:49:02.175Z,11.50
2019-02-09T13:51:50.459Z,11.60
2019-02-09T13:54:38.500Z,11.60
2019-02-09T13:57:26.720Z,11.60
2019-02-09T14:00:34.006Z,11.50
2019-02-09T14:03:16.129Z,11.50
2019-02-09T14:05:58.059Z,11.50
2019-02-09T14:08:46.094Z,11.50
2019-02-09T14:11:34.125Z,11.40
2019-02-09T14:14:22.229Z,11.40
2019-02-09T14:17:04.969Z,11.40
2019-02-09T14:19:53.018Z,11.40
2019-02-09T14:22:34.758Z,11.40
2019-02-09T14:25:22.807Z,11.40
2019-02-09T14:28:05.667Z,11.40
2019-02-09T14:30:53.959Z,11.40
2019-02-09T14:33:37.734Z,11.40
2019-02-09T14:36:26.134Z,11.30
2019-02-09T14:39:09.484Z,11.30
2019-02-09T14:41:57.601Z,11.30
2019-02-09T14:44:39.556Z,11.30
2019-02-09T14:47:27.608Z,11.30
2019-02-09T14:50:11.516Z,11.20
2019-02-09T14:52:59.568Z,11.30
2019-02-09T14:55:47.646Z,11.20
2019-02-09T14:58:29.687Z,11.30
2019-02-09T15:01:17.667Z,11.30
2019-02-09T15:04:02.807Z,11.30
2019-02-09T15:06:48.531Z,11.40
2019-02-09T15:09:30.640Z,11.40
2019-02-09T15:12:18.689Z,11.40
2019-02-09T15:15:00.815Z,11.30
2019-02-09T15:17:48.875Z,11.20
2019-02-09T15:20:35.234Z,11.20
2019-02-09T15:23:23.276Z,11.20
2019-02-09T15:26:05.120Z,11.20
2019-02-09T15:28:53.083Z,11.10
2019-02-09T15:31:34.908Z,11.00
2019-02-09T15:34:17.065Z,10.90
2019-02-09T15:37:05.056Z,10.90
2019-02-09T15:39:46.450Z,10.80
2019-02-09T15:42:28.524Z,10.70
2019-02-09T15:45:11.998Z,10.60
2019-02-09T15:47:59.988Z,10.60
2019-02-09T15:50:42.076Z,10.50
2019-02-09T15:53:30.064Z,10.50
2019-02-09T15:56:12.049Z,10.40
2019-02-09T15:59:00.077Z,10.30
2019-02-09T16:01:41.424Z,10.30
2019-02-09T16:04:29.503Z,10.30
2019-02-09T16:07:10.911Z,10.30
2019-02-09T16:09:58.875Z,10.20
2019-02-09T16:12:40.714Z,10.20
2019-02-09T16:15:42.863Z,10.20
2019-02-09T16:18:24.897Z,10.20
2019-02-09T16:21:12.909Z,10.10
2019-02-09T16:24:00.963Z,10.10
2019-02-09T16:26:48.942Z,10.10
2019-02-09T16:29:30.276Z,10.00
2019-02-09T16:32:18.272Z,10.00
2019-02-09T16:35:00.280Z,10.00
2019-02-09T16:37:48.256Z,10.00
2019-02-09T16:40:30.497Z,9.90
2019-02-09T16:43:18.610Z,9.90
2019-02-09T16:46:00.364Z,9.90
2019-02-09T16:48:48.336Z,9.90
2019-02-09T16:51:29.496Z,9.80
2019-02-09T16:54:17.444Z,9.80
2019-02-09T16:56:58.982Z,9.80
2019-02-09T16:59:46.944Z,9.80
2019-02-09T17:02:28.750Z,9.90
2019-02-09T17:05:16.779Z,9.80
2019-02-09T17:07:58.035Z,9.90
2019-02-09T17:10:46.056Z,9.80
2019-02-09T17:13:27.915Z,9.90
2019-02-09T17:19:13.603Z,9.90
2019-02-09T17:22:01.664Z,9.80
2019-02-09T17:24:44.712Z,9.90
2019-02-09T17:30:34.267Z,9.90
2019-02-09T17:33:22.306Z,10.00
2019-02-09T17:38:56.082Z,10.00
2019-02-09T17:41:37.981Z,10.00
2019-02-09T17:44:20.120Z,10.10
2019-02-09T17:50:10.295Z,10.10
2019-02-09T17:52:58.296Z,10.10
2019-02-09T17:55:39.766Z,10.00
2019-02-09T17:58:27.804Z,10.10
2019-02-09T18:01:11.159Z,10.10
2019-02-09T18:04:00.212Z,10.00
2019-02-09T18:06:42.874Z,10.00
2019-02-09T18:09:30.889Z,9.90
2019-02-09T18:12:12.083Z,10.00
2019-02-09T18:15:00.178Z,10.00
2019-02-09T18:17:41.570Z,9.90
2019-02-09T18:20:29.555Z,9.90
2019-02-09T18:23:11.537Z,9.90
2019-02-09T18:25:59.452Z,9.90
2019-02-09T18:28:47.493Z,9.90
2019-02-09T18:31:29.484Z,9.90
2019-02-09T18:37:18.076Z,9.60
2019-02-09T18:40:18.515Z,9.70
2019-02-09T18:42:59.914Z,9.60
2019-02-09T18:48:48.732Z,9.60
2019-02-09T18:51:36.774Z,9.50
2019-02-09T18:54:18.881Z,9.60
2019-02-09T18:57:06.843Z,9.50
2019-02-09T18:59:48.881Z,9.50
2019-02-09T19:02:38.450Z,9.50
2019-02-09T19:05:19.941Z,9.40
2019-02-09T19:08:01.584Z,9.40
2019-02-09T19:10:49.630Z,9.30
2019-02-09T19:13:31.553Z,9.30
2019-02-09T19:16:19.587Z,9.30
2019-02-09T19:19:01.215Z,9.20
2019-02-09T19:21:49.504Z,9.20
2019-02-09T19:24:32.379Z,9.20
2019-02-09T19:27:20.366Z,9.20
2019-02-09T19:30:02.341Z,9.10
2019-02-09T19:32:51.043Z,9.10
2019-02-09T19:35:32.795Z,9.20
2019-02-09T19:38:20.820Z,9.20
2019-02-09T19:41:02.784Z,9.20
2019-02-09T19:43:50.740Z,9.10
2019-02-09T19:46:32.504Z,9.20
2019-02-09T19:52:21.396Z,9.30
2019-02-09T19:55:30.111Z,9.20
2019-02-09T20:01:18.722Z,9.30
2019-02-09T20:04:06.823Z,9.30
2019-02-09T20:06:48.553Z,9.20
2019-02-09T20:09:36.606Z,9.20
2019-02-09T20:12:18.867Z,9.20
2019-02-09T20:15:21.224Z,9.10
2019-02-09T20:18:02.399Z,9.10
2019-02-09T20:20:47.470Z,9.20
2019-02-09T20:23:33.891Z,9.10
2019-02-09T20:26:16.049Z,9.00
2019-02-09T20:28:57.201Z,9.00
2019-02-09T20:31:45.164Z,8.90
2019-02-09T20:34:26.712Z,8.90
2019-02-09T20:37:14.741Z,8.80
2019-02-09T20:39:56.619Z,8.70
2019-02-09T20:42:44.686Z,8.70
2019-02-09T20:45:26.728Z,8.60
2019-02-09T20:48:14.770Z,8.60
2019-02-09T20:50:56.765Z,8.50
2019-02-09T20:53:44.791Z,8.50
2019-02-09T20:56:26.386Z,8.50
2019-02-09T20:58:55.151Z,8.50
2019-02-09T21:01:43.148Z,8.50
2019-02-09T21:07:31.747Z,8.30
2019-02-09T21:10:38.978Z,8.40
2019-02-09T21:13:27.003Z,8.40
2019-02-09T21:16:14.952Z,8.40
2019-02-09T21:19:02.985Z,8.30
2019-02-09T21:21:44.540Z,8.30
2019-02-09T21:24:32.593Z,8.30
2019-02-09T21:27:14.364Z,8.20
2019-02-09T21:30:02.407Z,8.20
2019-02-09T21:32:43.681Z,8.10
2019-02-09T21:35:31.708Z,8.10
2019-02-09T21:38:13.169Z,8.10
2019-02-09T21:44:01.140Z,8.20
2019-02-09T21:46:49.179Z,8.10
2019-02-09T21:49:37.140Z,8.10
2019-02-09T21:52:19.060Z,8.20
2019-02-09T21:55:21.231Z,8.20
2019-02-09T21:58:02.822Z,8.20
2019-02-09T22:00:50.810Z,8.20
2019-02-09T22:03:38.774Z,8.30
2019-02-09T22:06:20.715Z,8.30
2019-02-09T22:09:08.847Z,8.30
2019-02-09T22:11:50.523Z,8.40
2019-02-09T22:14:38.524Z,8.40
2019-02-09T22:17:20.497Z,8.40
2019-02-09T22:20:22.928Z,8.40
2019-02-09T22:23:04.948Z,8.50
2019-02-09T22:25:52.946Z,8.40
2019-02-09T22:28:35.036Z,8.50
2019-02-09T22:31:23.035Z,8.50
2019-02-09T22:34:04.374Z,8.50
2019-02-09T22:36:52.493Z,8.50
2019-02-09T22:39:34.591Z,8.50
2019-02-09T22:42:22.608Z,8.60
2019-02-09T22:45:05.815Z,8.60
2019-02-09T22:50:54.107Z,8.60
2019-02-09T22:53:42.069Z,8.60
2019-02-09T22:56:24.033Z,8.70
2019-02-09T22:59:12.143Z,8.60
2019-02-09T23:01:54.005Z,8.60
2019-02-09T23:04:54.273Z,8.60
2019-02-09T23:07:36.352Z,8.70
2019-02-09T23:10:25.800Z,8.70
2019-02-09T23:12:54.483Z,8.70
2019-02-09T23:15:42.493Z,8.70
2019-02-09T23:18:30.524Z,8.70
2019-02-09T23:21:12.328Z,8.60
2019-02-09T23:23:54.393Z,8.60
2019-02-09T23:26:42.382Z,8.60
2019-02-09T23:29:30.440Z,8.60
2019-02-09T23:32:12.398Z,8.60
2019-02-09T23:35:00.440Z,8.60
2019-02-09T23:37:41.896Z,8.60
2019-02-09T23:40:29.959Z,8.50
2019-02-09T23:43:11.691Z,8.50
2019-02-09T23:48:53.320Z,8.40
2019-02-09T23:51:41.319Z,8.40
2019-02-09T23:54:23.252Z,8.50
2019-02-09T23:57:11.204Z,8.50
2019-02-09T23:59:52.515Z,8.50
